createdAt,value
2018-01-10T00:00:41.567Z,3.90
2018-01-10T00:03:10.706Z,3.80
2018-01-10T00:05:38.667Z,3.80
2018-01-10T00:08:07.265Z,3.80
2018-01-10T00:10:35.245Z,3.80
2018-01-10T00:13:03.316Z,3.80
2018-01-10T00:15:31.165Z,3.90
2018-01-10T00:17:59.044Z,3.90
2018-01-10T00:20:26.919Z,3.90
2018-01-10T00:22:55.496Z,4.00
2018-01-10T00:25:23.447Z,4.00
2018-01-10T00:27:51.243Z,3.90
2018-01-10T00:30:19.200Z,3.80
2018-01-10T00:32:46.964Z,3.70
2018-01-10T00:35:14.736Z,3.60
2018-01-10T00:37:42.557Z,3.50
2018-01-10T00:40:10.367Z,3.30
2018-01-10T00:42:38.799Z,3.20
2018-01-10T00:45:06.790Z,3.00
2018-01-10T00:47:34.786Z,2.90
2018-01-10T00:50:02.624Z,2.80
2018-01-10T00:52:30.604Z,2.80
2018-01-10T00:54:58.582Z,2.80
2018-01-10T00:57:26.452Z,2.80
2018-01-10T00:59:54.333Z,2.90
2018-01-10T01:02:22.175Z,3.10
2018-01-10T01:04:49.902Z,3.20
2018-01-10T01:07:17.666Z,3.60
2018-01-10T01:09:46.351Z,3.70
2018-01-10T01:12:14.155Z,3.50
2018-01-10T01:14:42.024Z,3.60
2018-01-10T01:17:09.926Z,3.60
2018-01-10T01:19:38.485Z,3.50
2018-01-10T01:22:06.423Z,3.50
2018-01-10T01:24:35.046Z,3.30
2018-01-10T01:27:02.825Z,3.20
2018-01-10T01:29:31.470Z,3.30
2018-01-10T01:31:59.334Z,3.30
2018-01-10T01:34:27.079Z,3.30
2018-01-10T01:36:55.178Z,3.10
2018-01-10T01:39:23.137Z,3.00
2018-01-10T01:41:51.030Z,2.80
2018-01-10T01:44:18.778Z,2.60
2018-01-10T01:46:46.564Z,2.50
2018-01-10T01:49:15.084Z,2.30
2018-01-10T01:51:43.152Z,2.30
2018-01-10T01:54:10.963Z,2.40
2018-01-10T01:56:38.843Z,2.60
2018-01-10T01:59:07.157Z,2.40
2018-01-10T02:01:34.985Z,2.20
2018-01-10T02:04:02.732Z,2.30
2018-01-10T02:06:30.891Z,2.80
2018-01-10T02:08:58.676Z,2.90
2018-01-10T02:11:26.531Z,2.80
2018-01-10T02:13:55.729Z,2.70
2018-01-10T02:16:23.785Z,2.70
2018-01-10T02:18:51.541Z,2.60
2018-01-10T02:21:19.437Z,2.80
2018-01-10T02:23:47.186Z,2.80
2018-01-10T02:26:15.162Z,2.80
2018-01-10T02:28:43.083Z,2.80
2018-01-10T02:31:11.823Z,2.50
2018-01-10T02:33:39.666Z,2.50
2018-01-10T02:36:07.415Z,2.20
2018-01-10T02:38:35.201Z,2.10
2018-01-10T02:41:02.976Z,1.90
2018-01-10T02:43:30.840Z,1.80
2018-01-10T02:45:58.822Z,1.60
2018-01-10T02:48:26.780Z,1.50
2018-01-10T02:50:55.609Z,1.50
2018-01-10T02:53:24.250Z,1.40
2018-01-10T02:55:52.223Z,1.40
2018-01-10T02:58:19.985Z,1.30
2018-01-10T03:00:47.726Z,1.10
2018-01-10T03:03:15.730Z,1.00
2018-01-10T03:05:43.566Z,0.90
2018-01-10T03:08:11.455Z,0.80
2018-01-10T03:10:39.320Z,0.70
2018-01-10T03:13:07.848Z,0.70
2018-01-10T03:15:35.833Z,0.80
2018-01-10T03:18:03.642Z,0.90
2018-01-10T03:20:31.502Z,1.10
2018-01-10T03:22:59.252Z,1.20
2018-01-10T03:25:27.136Z,1.20
2018-01-10T03:27:55.002Z,1.30
2018-01-10T03:30:22.861Z,1.40
2018-01-10T03:32:50.627Z,1.40
2018-01-10T03:35:18.367Z,1.50
2018-01-10T03:37:46.114Z,1.50
2018-01-10T03:40:13.851Z,1.60
2018-01-10T03:42:42.793Z,1.70
2018-01-10T03:45:11.698Z,1.70
2018-01-10T03:47:39.567Z,1.70
2018-01-10T03:50:07.292Z,1.80
2018-01-10T03:52:35.081Z,1.70
2018-01-10T03:55:02.955Z,1.70
2018-01-10T03:57:30.729Z,1.70
2018-01-10T03:59:58.542Z,1.70
2018-01-10T04:02:26.644Z,1.80
2018-01-10T04:04:54.509Z,2.00
2018-01-10T04:07:22.244Z,2.00
2018-01-10T04:09:50.050Z,2.00
2018-01-10T04:12:18.116Z,2.20
2018-01-10T04:14:45.990Z,2.20
2018-01-10T04:17:13.752Z,2.40
2018-01-10T04:19:41.493Z,2.40
2018-01-10T04:22:09.399Z,2.40
2018-01-10T04:24:37.462Z,2.40
2018-01-10T04:27:05.217Z,2.40
2018-01-10T04:29:33.063Z,2.50
2018-01-10T04:32:01.074Z,2.50
2018-01-10T04:34:28.902Z,2.60
2018-01-10T04:36:56.782Z,2.80
2018-01-10T04:39:24.668Z,2.80
2018-01-10T04:41:53.056Z,2.80
2018-01-10T04:44:20.790Z,2.80
2018-01-10T04:46:48.767Z,2.80
2018-01-10T04:49:16.534Z,2.80
2018-01-10T04:51:44.387Z,2.70
2018-01-10T04:54:12.366Z,2.70
2018-01-10T04:56:40.284Z,2.70
2018-01-10T04:59:08.078Z,2.70
2018-01-10T05:01:35.808Z,2.60
2018-01-10T05:04:03.829Z,2.60
2018-01-10T05:06:31.841Z,2.50
2018-01-10T05:09:00.587Z,2.40
2018-01-10T05:11:28.371Z,2.40
2018-01-10T05:13:56.225Z,2.40
2018-01-10T05:16:24.118Z,2.30
2018-01-10T05:18:52.640Z,2.30
2018-01-10T05:21:20.514Z,2.30
2018-01-10T05:23:48.290Z,2.20
2018-01-10T05:26:17.083Z,2.20
2018-01-10T05:28:44.852Z,2.10
2018-01-10T05:31:12.692Z,2.10
2018-01-10T05:33:40.565Z,2.00
2018-01-10T05:36:09.275Z,2.00
2018-01-10T05:38:37.234Z,2.00
2018-01-10T05:41:05.004Z,2.00
2018-01-10T05:43:33.688Z,1.80
2018-01-10T05:46:06.819Z,1.80
2018-01-10T05:48:35.545Z,1.80
2018-01-10T05:51:03.462Z,1.80
2018-01-10T05:53:32.251Z,1.90
2018-01-10T05:56:00.808Z,1.90
2018-01-10T05:58:28.836Z,1.90
2018-01-10T06:00:56.734Z,2.00
2018-01-10T06:03:24.734Z,1.90
2018-01-10T06:05:53.287Z,2.00
2018-01-10T06:08:21.138Z,2.00
2018-01-10T06:10:48.917Z,2.10
2018-01-10T06:13:16.682Z,2.20
2018-01-10T06:15:44.546Z,2.20
2018-01-10T06:18:12.415Z,2.20
2018-01-10T06:20:40.498Z,2.30
2018-01-10T06:23:08.298Z,2.30
2018-01-10T06:25:36.120Z,2.40
2018-01-10T06:28:04.506Z,2.40
2018-01-10T06:30:32.303Z,2.40
2018-01-10T06:33:01.362Z,2.30
2018-01-10T06:35:29.222Z,2.30
2018-01-10T06:37:56.995Z,2.30
2018-01-10T06:40:25.550Z,2.30
2018-01-10T06:42:57.796Z,2.30
2018-01-10T06:45:25.605Z,2.30
2018-01-10T06:47:53.365Z,2.40
2018-01-10T06:50:21.936Z,2.30
2018-01-10T06:52:50.504Z,2.40
2018-01-10T06:55:18.509Z,2.40
2018-01-10T06:57:46.453Z,2.50
2018-01-10T07:00:14.417Z,2.60
2018-01-10T07:02:42.393Z,2.60
2018-01-10T07:05:11.172Z,2.60
2018-01-10T07:07:39.578Z,2.70
2018-01-10T07:10:07.430Z,2.80
2018-01-10T07:12:35.228Z,2.80
2018-01-10T07:15:03.152Z,2.90
2018-01-10T07:17:30.932Z,2.80
2018-01-10T07:19:58.884Z,2.80
2018-01-10T07:22:26.625Z,2.80
2018-01-10T07:24:54.433Z,2.80
2018-01-10T07:27:22.284Z,2.90
2018-01-10T07:29:50.146Z,2.90
2018-01-10T07:32:18.031Z,2.80
2018-01-10T07:34:45.788Z,2.60
2018-01-10T07:37:13.636Z,2.40
2018-01-10T07:39:41.731Z,2.20
2018-01-10T07:42:09.694Z,2.20
2018-01-10T07:44:37.752Z,2.20
2018-01-10T07:47:07.051Z,2.20
2018-01-10T07:49:35.023Z,2.20
2018-01-10T07:52:03.021Z,2.20
2018-01-10T07:54:30.879Z,2.20
2018-01-10T07:56:58.756Z,2.30
2018-01-10T07:59:27.411Z,2.30
2018-01-10T08:01:55.305Z,2.30
2018-01-10T08:04:24.701Z,2.50
2018-01-10T08:06:52.568Z,2.40
2018-01-10T08:09:20.515Z,2.50
2018-01-10T08:11:48.326Z,2.70
2018-01-10T08:14:16.860Z,2.80
2018-01-10T08:16:44.639Z,2.80
2018-01-10T08:19:12.416Z,2.90
2018-01-10T08:21:40.458Z,2.90
2018-01-10T08:24:09.055Z,3.00
2018-01-10T08:26:36.928Z,3.10
2018-01-10T08:29:04.795Z,3.20
2018-01-10T08:31:32.707Z,3.30
2018-01-10T08:34:00.609Z,3.40
2018-01-10T08:36:28.473Z,3.50
2018-01-10T08:38:56.346Z,3.60
2018-01-10T08:41:24.127Z,3.70
2018-01-10T08:43:51.969Z,3.80
2018-01-10T08:46:19.797Z,3.90
2018-01-10T08:48:48.341Z,4.10
2018-01-10T08:51:16.092Z,4.10
2018-01-10T08:53:44.674Z,4.30
2018-01-10T08:56:12.560Z,4.40
2018-01-10T08:58:40.405Z,4.60
2018-01-10T09:01:08.367Z,4.60
2018-01-10T09:03:36.250Z,4.60
2018-01-10T09:06:04.117Z,4.70
2018-01-10T09:08:31.965Z,4.70
2018-01-10T09:11:00.144Z,4.80
2018-01-10T09:13:27.888Z,4.80
2018-01-10T09:15:55.649Z,5.00
2018-01-10T09:18:23.470Z,5.00
2018-01-10T09:20:51.403Z,5.10
2018-01-10T09:23:19.379Z,5.10
2018-01-10T09:25:47.181Z,5.10
2018-01-10T09:28:15.738Z,5.20
2018-01-10T09:30:43.687Z,5.20
2018-01-10T09:33:11.554Z,5.10
2018-01-10T09:35:39.483Z,5.30
2018-01-10T09:38:08.312Z,5.70
2018-01-10T09:40:36.889Z,5.70
2018-01-10T09:43:05.396Z,5.70
2018-01-10T09:45:33.377Z,5.80
2018-01-10T09:48:02.037Z,5.80
2018-01-10T09:50:29.823Z,5.80
2018-01-10T09:52:58.273Z,5.80
2018-01-10T09:55:26.263Z,6.00
2018-01-10T09:57:54.115Z,6.10
2018-01-10T10:00:22.604Z,6.10
2018-01-10T10:02:50.371Z,6.10
2018-01-10T10:05:18.325Z,6.00
2018-01-10T10:07:46.219Z,5.90
2018-01-10T10:10:14.169Z,5.70
2018-01-10T10:12:42.043Z,5.60
2018-01-10T10:15:09.922Z,5.60
2018-01-10T10:17:37.763Z,5.50
2018-01-10T10:20:05.729Z,5.60
2018-01-10T10:22:33.717Z,5.60
2018-01-10T10:25:01.591Z,5.70
2018-01-10T10:27:29.449Z,5.80
2018-01-10T10:29:57.321Z,5.90
2018-01-10T10:32:25.109Z,6.00
2018-01-10T10:34:53.768Z,6.10
2018-01-10T10:37:21.513Z,6.10
2018-01-10T10:39:49.276Z,6.00
2018-01-10T10:42:17.269Z,5.90
2018-01-10T10:44:45.079Z,6.00
2018-01-10T10:47:14.612Z,6.00
2018-01-10T10:49:42.358Z,6.10
2018-01-10T10:52:10.171Z,6.20
2018-01-10T10:54:38.007Z,6.20
2018-01-10T10:57:06.467Z,6.20
2018-01-10T10:59:34.383Z,6.20
2018-01-10T11:02:02.243Z,6.30
2018-01-10T11:04:30.108Z,6.30
2018-01-10T11:06:57.955Z,6.50
2018-01-10T11:09:25.924Z,6.50
2018-01-10T11:11:53.808Z,6.60
2018-01-10T11:14:22.271Z,6.60
2018-01-10T11:16:50.050Z,6.60
2018-01-10T11:19:17.999Z,6.70
2018-01-10T11:21:46.076Z,6.70
2018-01-10T11:24:13.959Z,6.80
2018-01-10T11:26:41.808Z,6.80
2018-01-10T11:29:09.674Z,6.90
2018-01-10T11:31:38.478Z,7.00
2018-01-10T11:34:06.231Z,7.10
2018-01-10T11:36:34.066Z,7.10
2018-01-10T11:39:07.383Z,7.10
2018-01-10T11:41:35.396Z,7.30
2018-01-10T11:44:04.066Z,7.50
2018-01-10T11:46:32.894Z,7.50
2018-01-10T11:49:00.805Z,7.50
2018-01-10T11:51:28.699Z,7.70
2018-01-10T11:53:56.550Z,7.70
2018-01-10T11:56:24.531Z,7.80
2018-01-10T11:58:52.407Z,7.90
2018-01-10T12:01:21.075Z,7.90
2018-01-10T12:03:48.918Z,7.90
2018-01-10T12:06:16.685Z,7.90
2018-01-10T12:08:44.651Z,7.60
2018-01-10T12:11:12.630Z,7.20
2018-01-10T12:13:41.304Z,6.80
2018-01-10T12:16:09.189Z,6.80
2018-01-10T12:18:37.056Z,6.70
2018-01-10T12:21:04.823Z,6.60
2018-01-10T12:23:32.741Z,6.40
2018-01-10T12:26:00.514Z,6.20
2018-01-10T12:28:28.313Z,6.20
2018-01-10T12:30:56.388Z,6.10
2018-01-10T12:33:24.685Z,6.00
2018-01-10T12:35:52.466Z,6.00
2018-01-10T12:38:21.093Z,6.00
2018-01-10T12:40:48.885Z,6.00
2018-01-10T12:43:16.748Z,5.90
2018-01-10T12:45:44.594Z,5.90
2018-01-10T12:48:12.474Z,5.80
2018-01-10T12:50:40.226Z,5.80
2018-01-10T12:53:08.115Z,5.80
2018-01-10T12:55:36.064Z,5.70
2018-01-10T12:58:03.841Z,5.70
2018-01-10T13:00:31.717Z,5.80
2018-01-10T13:03:00.154Z,5.70
2018-01-10T13:05:28.037Z,5.70
2018-01-10T13:07:55.940Z,5.80
2018-01-10T13:10:23.804Z,5.70
2018-01-10T13:12:52.379Z,5.40
2018-01-10T13:15:20.474Z,5.40
2018-01-10T13:17:49.500Z,5.20
2018-01-10T13:20:17.693Z,5.20
2018-01-10T13:22:46.378Z,5.10
2018-01-10T13:25:14.349Z,5.20
2018-01-10T13:27:42.520Z,5.30
2018-01-10T13:30:10.688Z,5.40
2018-01-10T13:32:38.751Z,5.30
2018-01-10T13:35:07.435Z,5.30
2018-01-10T13:37:35.829Z,5.40
2018-01-10T13:40:04.028Z,5.20
2018-01-10T13:42:32.850Z,5.20
2018-01-10T13:45:01.497Z,5.40
2018-01-10T13:47:29.527Z,5.40
2018-01-10T13:49:57.525Z,5.60
2018-01-10T13:52:25.715Z,5.70
2018-01-10T13:54:53.659Z,5.80
2018-01-10T13:57:21.816Z,5.70
2018-01-10T13:59:49.819Z,5.50
2018-01-10T14:02:18.300Z,5.40
2018-01-10T14:04:46.075Z,5.30
2018-01-10T14:07:14.753Z,5.10
2018-01-10T14:09:42.604Z,5.10
2018-01-10T14:12:10.510Z,5.00
2018-01-10T14:14:39.252Z,4.80
2018-01-10T14:17:07.125Z,4.70
2018-01-10T14:19:35.050Z,4.70
2018-01-10T14:22:03.887Z,4.80
2018-01-10T14:24:31.794Z,4.70
2018-01-10T14:26:59.814Z,4.90
2018-01-10T14:29:27.810Z,5.30
2018-01-10T14:31:57.684Z,6.00
2018-01-10T14:34:25.700Z,6.00
2018-01-10T14:36:54.473Z,6.20
2018-01-10T14:39:22.563Z,6.50
2018-01-10T14:41:51.256Z,6.90
2018-01-10T14:44:19.813Z,6.80
2018-01-10T14:46:48.045Z,6.70
2018-01-10T14:49:16.145Z,6.20
2018-01-10T14:51:44.139Z,5.70
2018-01-10T14:54:11.918Z,5.40
2018-01-10T14:56:40.508Z,4.80
2018-01-10T14:59:09.452Z,4.70
2018-01-10T15:01:37.418Z,4.70
2018-01-10T15:04:05.284Z,4.60
2018-01-10T15:06:34.061Z,4.40
2018-01-10T15:09:02.349Z,4.40
2018-01-10T15:11:31.069Z,4.30
2018-01-10T15:13:58.919Z,4.20
2018-01-10T15:16:26.725Z,4.10
2018-01-10T15:18:55.295Z,4.00
2018-01-10T15:21:32.042Z,4.00
2018-01-10T15:24:00.011Z,4.00
2018-01-10T15:26:27.965Z,3.90
2018-01-10T15:28:55.960Z,3.80
2018-01-10T15:31:23.898Z,3.80
2018-01-10T15:33:51.748Z,3.80
2018-01-10T15:36:19.768Z,3.80
2018-01-10T15:38:47.816Z,4.00
2018-01-10T15:41:15.775Z,4.00
2018-01-10T15:43:44.154Z,4.00
2018-01-10T15:46:11.950Z,4.00
2018-01-10T15:48:39.940Z,4.00
2018-01-10T15:51:08.980Z,3.80
2018-01-10T15:53:36.863Z,3.80
2018-01-10T15:56:04.920Z,3.80
2018-01-10T15:58:32.937Z,3.80
2018-01-10T16:01:01.553Z,3.80
2018-01-10T16:03:29.448Z,3.70
2018-01-10T16:05:57.714Z,3.70
2018-01-10T16:08:25.816Z,3.70
2018-01-10T16:10:54.676Z,3.70
2018-01-10T16:13:22.789Z,3.60
2018-01-10T16:15:50.937Z,3.70
2018-01-10T16:18:19.621Z,3.80
2018-01-10T16:20:47.485Z,3.80
2018-01-10T16:23:15.545Z,3.80
2018-01-10T16:25:43.427Z,3.80
2018-01-10T16:28:11.508Z,3.80
2018-01-10T16:30:39.483Z,3.90
2018-01-10T16:33:08.164Z,3.80
2018-01-10T16:35:36.009Z,3.80
2018-01-10T16:38:04.901Z,4.00
2018-01-10T16:40:34.077Z,3.90
2018-01-10T16:43:01.977Z,3.80
2018-01-10T16:45:30.778Z,3.90
2018-01-10T16:47:59.310Z,3.60
2018-01-10T16:50:27.047Z,3.50
2018-01-10T16:52:55.558Z,3.30
2018-01-10T16:55:23.570Z,3.30
2018-01-10T16:57:52.533Z,3.30
2018-01-10T17:00:20.416Z,3.40
2018-01-10T17:02:48.308Z,3.50
2018-01-10T17:05:16.885Z,3.30
2018-01-10T17:07:44.734Z,3.20
2018-01-10T17:10:12.600Z,3.10
2018-01-10T17:12:40.552Z,3.20
2018-01-10T17:15:08.524Z,3.10
2018-01-10T17:17:36.597Z,3.10
2018-01-10T17:20:05.343Z,3.10
2018-01-10T17:22:33.193Z,3.00
2018-01-10T17:25:01.834Z,2.70
2018-01-10T17:27:30.338Z,2.70
2018-01-10T17:29:58.103Z,2.60
2018-01-10T17:32:25.961Z,2.60
2018-01-10T17:34:53.846Z,2.50
2018-01-10T17:37:22.902Z,2.40
2018-01-10T17:39:50.800Z,2.40
2018-01-10T17:42:18.652Z,2.30
2018-01-10T17:44:46.521Z,2.30
2018-01-10T17:47:14.573Z,2.30
2018-01-10T17:49:42.437Z,2.30
2018-01-10T17:52:10.247Z,2.40
2018-01-10T17:54:38.914Z,2.40
2018-01-10T17:57:09.367Z,2.40
2018-01-10T17:59:37.324Z,2.40
2018-01-10T18:02:05.277Z,2.40
2018-01-10T18:04:33.081Z,2.40
2018-01-10T18:07:00.925Z,2.40
2018-01-10T18:09:30.717Z,2.40
2018-01-10T18:11:58.597Z,2.40
2018-01-10T18:14:26.448Z,2.40
2018-01-10T18:16:54.465Z,2.40
2018-01-10T18:19:22.301Z,2.50
2018-01-10T18:21:51.069Z,2.40
2018-01-10T18:24:19.125Z,2.40
2018-01-10T18:26:47.117Z,2.40
2018-01-10T18:29:15.277Z,2.50
2018-01-10T18:31:43.063Z,2.40
2018-01-10T18:34:11.720Z,2.40
2018-01-10T18:36:40.610Z,2.40
2018-01-10T18:39:08.697Z,2.50
2018-01-10T18:41:36.693Z,2.50
2018-01-10T18:44:06.276Z,2.60
2018-01-10T18:46:34.337Z,2.50
2018-01-10T18:49:02.290Z,2.60
2018-01-10T18:51:30.287Z,2.60
2018-01-10T18:53:58.429Z,2.60
2018-01-10T18:56:26.692Z,2.70
2018-01-10T18:58:54.551Z,2.70
2018-01-10T19:01:22.576Z,2.70
2018-01-10T19:03:50.555Z,2.70
2018-01-10T19:06:18.508Z,2.70
2018-01-10T19:08:46.924Z,2.80
2018-01-10T19:11:15.563Z,2.80
2018-01-10T19:13:43.626Z,2.80
2018-01-10T19:18:50.079Z,2.80
2018-01-10T19:21:18.403Z,2.70
2018-01-10T19:23:46.211Z,2.70
2018-01-10T19:26:14.248Z,2.70
2018-01-10T19:28:42.285Z,2.80
2018-01-10T19:31:10.151Z,2.90
2018-01-10T19:33:38.098Z,2.90
2018-01-10T19:36:05.905Z,2.90
2018-01-10T19:38:34.159Z,2.90
2018-01-10T19:41:02.174Z,2.90
2018-01-10T19:43:32.361Z,2.90
2018-01-10T19:46:00.366Z,2.90
2018-01-10T19:48:29.519Z,2.90
2018-01-10T19:50:59.287Z,2.90
2018-01-10T19:53:28.115Z,2.90
2018-01-10T19:55:56.192Z,2.90
2018-01-10T19:58:24.462Z,3.00
2018-01-10T20:00:52.499Z,2.90
2018-01-10T20:03:20.417Z,3.00
2018-01-10T20:05:48.681Z,3.00
2018-01-10T20:08:16.606Z,3.10
2018-01-10T20:10:45.391Z,3.20
2018-01-10T20:13:14.545Z,3.30
2018-01-10T20:15:42.523Z,3.30
2018-01-10T20:18:12.411Z,3.30
2018-01-10T20:20:40.589Z,3.30
2018-01-10T20:23:08.682Z,3.20
2018-01-10T20:25:36.671Z,3.20
2018-01-10T20:28:05.350Z,3.10
2018-01-10T20:30:34.437Z,3.10
2018-01-10T20:33:02.318Z,3.00
2018-01-10T20:35:30.973Z,3.00
2018-01-10T20:37:59.330Z,2.90
2018-01-10T20:40:27.306Z,3.00
2018-01-10T20:42:56.604Z,3.10
2018-01-10T20:45:24.988Z,3.10
2018-01-10T20:47:53.310Z,3.10
2018-01-10T20:50:22.149Z,3.10
2018-01-10T20:52:50.219Z,3.00
2018-01-10T20:55:18.226Z,3.10
2018-01-10T20:57:46.182Z,3.10
2018-01-10T21:00:14.537Z,3.10
2018-01-10T21:02:43.069Z,3.10
2018-01-10T21:05:11.908Z,3.20
2018-01-10T21:07:39.918Z,3.20
2018-01-10T21:10:08.766Z,3.20
2018-01-10T21:12:36.786Z,3.20
2018-01-10T21:15:05.406Z,3.20
2018-01-10T21:17:33.498Z,3.20
2018-01-10T21:20:02.536Z,3.20
2018-01-10T21:22:31.160Z,3.20
2018-01-10T21:24:59.038Z,3.20
2018-01-10T21:27:26.931Z,3.20
2018-01-10T21:29:54.975Z,3.20
2018-01-10T21:32:24.789Z,3.20
2018-01-10T21:34:52.887Z,3.30
2018-01-10T21:37:20.759Z,3.30
2018-01-10T21:39:48.690Z,3.30
2018-01-10T21:42:16.682Z,3.30
2018-01-10T21:44:44.934Z,3.20
2018-01-10T21:47:12.815Z,3.20
2018-01-10T21:49:41.315Z,3.30
2018-01-10T21:52:10.658Z,3.10
2018-01-10T21:54:38.631Z,3.10
2018-01-10T21:57:06.480Z,2.90
2018-01-10T21:59:34.393Z,2.70
2018-01-10T22:02:02.766Z,2.70
2018-01-10T22:04:30.766Z,2.80
2018-01-10T22:06:59.038Z,2.80
2018-01-10T22:09:27.124Z,2.80
2018-01-10T22:11:55.931Z,3.10
2018-01-10T22:14:24.059Z,3.10
2018-01-10T22:16:52.027Z,3.10
2018-01-10T22:19:21.005Z,3.10
2018-01-10T22:21:49.250Z,3.00
2018-01-10T22:24:17.065Z,2.90
2018-01-10T22:26:45.014Z,2.70
2018-01-10T22:29:12.915Z,2.30
2018-01-10T22:31:40.873Z,2.00
2018-01-10T22:34:08.843Z,1.80
2018-01-10T22:36:36.679Z,1.70
2018-01-10T22:39:04.756Z,1.60
2018-01-10T22:41:32.536Z,1.60
2018-01-10T22:44:00.515Z,1.80
2018-01-10T22:46:28.670Z,1.60
2018-01-10T22:48:56.548Z,1.50
2018-01-10T22:51:24.632Z,1.50
2018-01-10T22:53:52.595Z,1.50
2018-01-10T22:56:20.538Z,1.30
2018-01-10T22:58:48.578Z,1.30
2018-01-10T23:01:16.574Z,1.30
2018-01-10T23:03:44.882Z,1.40
2018-01-10T23:06:13.026Z,1.40
2018-01-10T23:08:40.914Z,1.40
2018-01-10T23:11:09.311Z,1.40
2018-01-10T23:13:37.239Z,1.60
2018-01-10T23:16:05.130Z,1.60
2018-01-10T23:18:33.053Z,1.70
2018-01-10T23:21:01.043Z,1.70
2018-01-10T23:23:28.837Z,1.70
2018-01-10T23:25:56.613Z,1.70
2018-01-10T23:28:25.524Z,1.60
2018-01-10T23:30:53.344Z,1.50
2018-01-10T23:33:21.121Z,1.50
2018-01-10T23:35:50.703Z,1.60
2018-01-10T23:38:18.482Z,1.80
2018-01-10T23:40:46.310Z,2.00
2018-01-10T23:43:14.193Z,2.10
2018-01-10T23:45:42.271Z,2.20
2018-01-10T23:48:10.359Z,2.00
2018-01-10T23:50:38.431Z,1.80
2018-01-10T23:53:06.909Z,1.70
2018-01-10T23:55:35.285Z,1.50
2018-01-10T23:58:03.123Z,1.60
